Time;durP1;ratioP1;P1;durP2;ratioP2;P2;SDS_P1;SDS_P2;PMS_P1;PMS_P2;Temp;Humidity;BMP_temperature;BMP_pressure;BME280_temperature;BME280_humidity;BME280_pressure;Samples;Min_cycle;Max_cycle;Signal;HPM_P1;HPM_P2
2022/09/02 00:00:40;;;;;;;3.00;1.52;;;23.90;93.90;;;;;;4202219;28;20223;-79
2022/09/02 00:02:43;;;;;;;2.03;1.65;;;23.90;93.90;;;;;;4197866;28;20219;-80
2022/09/02 00:04:45;;;;;;;2.50;1.90;;;23.90;93.30;;;;;;4197921;28;20263;-80
2022/09/02 00:06:49;;;;;;;1.98;1.60;;;23.90;93.60;;;;;;4195421;28;20198;-80
2022/09/02 00:08:51;;;;;;;1.67;1.52;;;23.90;93.80;;;;;;4186100;28;20223;-80
2022/09/02 00:10:54;;;;;;;2.70;1.85;;;23.90;93.40;;;;;;4195327;28;20694;-80
2022/09/02 00:12:56;;;;;;;1.75;1.42;;;23.90;93.70;;;;;;4198514;28;20211;-80
2022/09/02 00:15:00;;;;;;;3.40;1.63;;;23.90;93.60;;;;;;4196437;28;20211;-80
2022/09/02 00:17:03;;;;;;;2.05;1.70;;;23.90;93.50;;;;;;4191620;28;20273;-80
2022/09/02 00:19:05;;;;;;;1.90;1.70;;;23.90;93.70;;;;;;4199856;28;20211;-80
2022/09/02 00:21:12;;;;;;;3.45;1.90;;;23.80;93.50;;;;;;4197286;28;20215;-80
2022/09/02 00:23:16;;;;;;;3.30;1.65;;;23.80;93.60;;;;;;4198446;28;20658;-80
2022/09/02 00:25:18;;;;;;;2.00;1.80;;;23.80;93.80;;;;;;4201368;28;20214;-80
2022/09/02 00:27:21;;;;;;;2.10;1.77;;;23.80;93.90;;;;;;4201969;28;20235;-80
2022/09/02 00:29:23;;;;;;;1.65;1.55;;;23.80;94.10;;;;;;4203622;28;21190;-80
2022/09/02 00:31:27;;;;;;;2.53;1.60;;;23.80;93.70;;;;;;4203481;28;20214;-80
2022/09/02 00:33:30;;;;;;;1.55;1.45;;;23.90;93.80;;;;;;4197428;28;20237;-80
2022/09/02 00:35:33;;;;;;;2.35;2.13;;;23.80;93.80;;;;;;4200345;28;20610;-80
2022/09/02 00:37:36;;;;;;;2.13;1.65;;;23.80;93.90;;;;;;4191040;28;20207;-79
2022/09/02 00:39:38;;;;;;;1.83;1.65;;;23.80;94.20;;;;;;4200606;28;20269;-80
2022/09/02 00:41:42;;;;;;;2.38;1.52;;;23.80;94.30;;;;;;4194000;28;20273;-80
2022/09/02 00:43:47;;;;;;;2.47;1.80;;;23.80;94.00;;;;;;4199391;28;20218;-80
2022/09/02 00:45:50;;;;;;;1.75;1.60;;;23.80;93.60;;;;;;4192455;28;20245;-79
2022/09/02 00:47:54;;;;;;;1.88;1.65;;;23.80;94.00;;;;;;4196112;28;20284;-80
2022/09/02 00:49:57;;;;;;;2.40;1.80;;;23.80;94.20;;;;;;4197224;28;20280;-79
2022/09/02 00:52:04;;;;;;;3.25;1.85;;;23.70;94.20;;;;;;4206238;28;20712;-80
2022/09/02 00:54:07;;;;;;;1.70;1.60;;;23.70;94.10;;;;;;4204204;28;20675;-80
2022/09/02 00:56:14;;;;;;;4.25;1.90;;;23.80;94.40;;;;;;4192849;28;20212;-80
2022/09/02 00:58:20;;;;;;;2.30;1.63;;;23.70;94.30;;;;;;4194152;28;20272;-79
2022/09/02 01:00:26;;;;;;;3.13;1.65;;;23.70;94.30;;;;;;4194402;28;20280;-80
2022/09/02 01:02:30;;;;;;;2.33;1.80;;;23.70;94.30;;;;;;4206687;28;20261;-80
2022/09/02 01:04:34;;;;;;;2.35;1.60;;;23.80;94.30;;;;;;4197627;28;20214;-80
2022/09/02 01:06:38;;;;;;;3.40;1.75;;;23.70;94.00;;;;;;4190879;28;20277;-80
2022/09/02 01:08:45;;;;;;;1.65;1.50;;;23.70;93.90;;;;;;4200305;28;20293;-80
2022/09/02 01:10:48;;;;;;;2.65;1.63;;;23.80;94.30;;;;;;4205786;28;20720;-80
2022/09/02 01:12:55;;;;;;;2.25;1.73;;;23.70;94.30;;;;;;4206032;28;20211;-79
2022/09/02 01:14:57;;;;;;;2.00;1.80;;;23.70;94.40;;;;;;4198356;28;20276;-80
2022/09/02 01:17:01;;;;;;;2.92;1.98;;;23.70;94.30;;;;;;4197909;28;20636;-79
2022/09/02 01:19:10;;;;;;;1.75;1.52;;;23.70;94.40;;;;;;4209071;28;20414;-80
2022/09/02 01:21:14;;;;;;;2.22;1.80;;;23.70;94.50;;;;;;4201396;28;20210;-80
2022/09/02 01:23:18;;;;;;;2.17;1.65;;;23.70;94.50;;;;;;4187899;28;20265;-80
2022/09/02 01:25:23;;;;;;;1.98;1.58;;;23.70;94.50;;;;;;4191531;28;20210;-80
2022/09/02 01:27:27;;;;;;;2.40;2.00;;;23.70;94.60;;;;;;4191742;28;20280;-80
2022/09/02 01:29:29;;;;;;;2.42;1.60;;;23.70;94.50;;;;;;4182985;28;20244;-80
2022/09/02 01:31:32;;;;;;;1.83;1.73;;;23.70;95.00;;;;;;4190358;28;20256;-80
2022/09/02 01:33:34;;;;;;;2.45;1.58;;;23.70;94.70;;;;;;4192844;28;20222;-80
2022/09/02 01:35:37;;;;;;;2.35;1.70;;;23.70;94.70;;;;;;4187841;28;20219;-79
2022/09/02 01:37:39;;;;;;;2.50;1.50;;;23.70;94.70;;;;;;4188639;28;20274;-80
2022/09/02 01:39:44;;;;;;;2.95;1.75;;;23.60;94.60;;;;;;4190065;28;20264;-79
2022/09/02 01:41:47;;;;;;;2.85;1.65;;;23.70;94.70;;;;;;4195257;28;20972;-79
2022/09/02 01:43:49;;;;;;;3.03;1.77;;;23.60;94.60;;;;;;4190455;28;20245;-79
2022/09/02 01:45:54;;;;;;;2.00;1.63;;;23.60;94.60;;;;;;4189881;28;20260;-79
2022/09/02 01:47:56;;;;;;;1.98;1.77;;;23.70;94.70;;;;;;4193959;28;20227;-79
2022/09/02 01:49:59;;;;;;;2.20;1.50;;;23.60;94.70;;;;;;4188885;28;20241;-79
2022/09/02 01:52:01;;;;;;;1.73;1.60;;;23.70;94.70;;;;;;4193460;28;20272;-79
2022/09/02 01:54:04;;;;;;;1.55;1.45;;;23.60;94.70;;;;;;4187884;28;20223;-79
2022/09/02 01:56:09;;;;;;;2.20;1.50;;;23.70;94.70;;;;;;4192004;28;20212;-79
2022/09/02 01:58:11;;;;;;;2.75;1.85;;;23.70;94.70;;;;;;4191414;28;20261;-80
2022/09/02 02:00:15;;;;;;;3.50;1.80;;;23.60;94.80;;;;;;4189109;28;20716;-79
2022/09/02 02:02:18;;;;;;;2.00;1.80;;;23.60;94.80;;;;;;4197099;28;20541;-80
2022/09/02 02:04:23;;;;;;;2.95;2.00;;;23.60;94.80;;;;;;4192115;28;20223;-80
2022/09/02 02:06:25;;;;;;;2.05;1.65;;;23.70;94.80;;;;;;4192593;28;20658;-80
2022/09/02 02:08:28;;;;;;;2.72;1.77;;;23.60;94.70;;;;;;4191713;28;20239;-80
2022/09/02 02:10:30;;;;;;;2.95;1.80;;;23.60;94.70;;;;;;4193922;28;20219;-80
2022/09/02 02:12:34;;;;;;;2.05;1.63;;;23.60;95.20;;;;;;4192944;28;20231;-80
2022/09/02 02:14:37;;;;;;;2.30;1.60;;;23.60;94.90;;;;;;4192077;28;20633;-80
2022/09/02 02:16:39;;;;;;;2.05;1.70;;;23.50;94.90;;;;;;4193254;28;20284;-80
2022/09/02 02:18:41;;;;;;;2.15;1.48;;;23.60;95.00;;;;;;4193177;28;20257;-80
2022/09/02 02:20:44;;;;;;;2.28;1.50;;;23.60;95.00;;;;;;4193514;28;20720;-80
2022/09/02 02:22:47;;;;;;;2.55;1.50;;;23.60;95.00;;;;;;4192074;28;20207;-80
2022/09/02 02:24:50;;;;;;;1.90;1.48;;;23.60;95.10;;;;;;4193159;28;20204;-80
2022/09/02 02:26:52;;;;;;;2.25;1.95;;;23.60;95.10;;;;;;4192296;28;20257;-80
2022/09/02 02:28:56;;;;;;;2.83;1.65;;;23.60;95.10;;;;;;4193066;28;20239;-79
2022/09/02 02:30:58;;;;;;;2.53;1.90;;;23.50;95.00;;;;;;4191588;28;20272;-80
2022/09/02 02:33:01;;;;;;;1.92;1.40;;;23.60;95.10;;;;;;4193846;28;20215;-80
2022/09/02 02:35:03;;;;;;;2.47;1.75;;;23.50;95.00;;;;;;4193553;28;20218;-80
2022/09/02 02:37:06;;;;;;;2.00;1.67;;;23.60;95.10;;;;;;4190060;28;20273;-80
2022/09/02 02:39:10;;;;;;;2.13;1.90;;;23.50;95.00;;;;;;4193306;28;20738;-80
2022/09/02 02:41:13;;;;;;;1.60;1.45;;;23.60;95.10;;;;;;4192595;28;20280;-80
2022/09/02 02:43:16;;;;;;;2.25;1.73;;;23.50;95.00;;;;;;4194092;28;20215;-80
2022/09/02 02:45:20;;;;;;;3.35;1.67;;;23.50;95.00;;;;;;4193700;28;20219;-80
2022/09/02 02:47:23;;;;;;;3.35;1.67;;;23.50;95.00;;;;;;4192893;28;20619;-80
2022/09/02 02:49:26;;;;;;;1.98;1.70;;;23.60;95.10;;;;;;4192837;28;20650;-80
2022/09/02 02:51:29;;;;;;;2.13;1.70;;;23.60;95.10;;;;;;4193119;28;20242;-81
2022/09/02 02:53:31;;;;;;;3.40;1.55;;;23.50;95.00;;;;;;4193360;28;20215;-80
2022/09/02 02:55:33;;;;;;;2.65;1.85;;;23.60;95.10;;;;;;4192531;28;20245;-80
2022/09/02 02:57:38;;;;;;;2.78;1.73;;;23.60;95.20;;;;;;4191335;28;20219;-80
2022/09/02 02:59:41;;;;;;;2.20;1.70;;;23.60;95.20;;;;;;4185741;28;20228;-80
2022/09/02 03:01:44;;;;;;;2.97;1.80;;;23.60;95.20;;;;;;4186274;28;20276;-80
2022/09/02 03:03:47;;;;;;;3.88;1.88;;;23.50;95.00;;;;;;4181738;28;20628;-80
2022/09/02 03:05:50;;;;;;;1.90;1.70;;;23.50;95.20;;;;;;4185765;28;20230;-80
2022/09/02 03:07:52;;;;;;;2.30;1.73;;;23.50;95.00;;;;;;4183711;28;20893;-80
2022/09/02 03:09:54;;;;;;;2.83;2.00;;;23.60;95.10;;;;;;4182748;28;20381;-80
2022/09/02 03:11:57;;;;;;;2.92;1.60;;;23.60;95.10;;;;;;4184474;28;20264;-80
2022/09/02 03:13:59;;;;;;;2.63;1.60;;;23.60;95.10;;;;;;4175663;28;20265;-80
2022/09/02 03:16:03;;;;;;;1.90;1.70;;;23.50;95.20;;;;;;4184574;28;20261;-80
2022/09/02 03:18:07;;;;;;;2.35;1.83;;;23.60;95.30;;;;;;4187541;28;20219;-80
2022/09/02 03:20:10;;;;;;;2.88;1.98;;;23.50;95.30;;;;;;4180814;28;20628;-80
2022/09/02 03:22:13;;;;;;;2.10;1.65;;;23.50;95.20;;;;;;4184252;28;20304;-80
2022/09/02 03:24:15;;;;;;;2.22;1.70;;;23.50;95.30;;;;;;4188931;28;20223;-80
2022/09/02 03:26:23;;;;;;;2.00;1.73;;;23.50;95.30;;;;;;4181077;28;20281;-80
2022/09/02 03:28:28;;;;;;;2.90;1.55;;;23.50;95.40;;;;;;4186323;28;20210;-80
2022/09/02 03:30:32;;;;;;;2.40;1.77;;;23.50;95.30;;;;;;4183457;28;20235;-80
2022/09/02 03:32:34;;;;;;;2.67;1.92;;;23.50;95.30;;;;;;4182758;28;20238;-80
2022/09/02 03:34:38;;;;;;;2.85;1.80;;;23.50;95.10;;;;;;4179931;28;20469;-80
2022/09/02 03:36:43;;;;;;;2.72;1.55;;;23.50;95.30;;;;;;4178400;28;20265;-80
2022/09/02 03:38:46;;;;;;;2.55;1.92;;;23.50;95.30;;;;;;4179504;28;20257;-80
2022/09/02 03:40:48;;;;;;;2.42;1.73;;;23.50;95.30;;;;;;4184466;28;20690;-80
2022/09/02 03:42:51;;;;;;;3.45;2.03;;;23.50;95.40;;;;;;4188286;28;20215;-80
2022/09/02 03:44:53;;;;;;;2.40;1.80;;;23.40;95.40;;;;;;4190787;28;20288;-80
2022/09/02 03:46:55;;;;;;;2.78;1.70;;;23.50;95.50;;;;;;4185745;28;20660;-80
2022/09/02 03:48:58;;;;;;;3.03;1.52;;;23.40;95.50;;;;;;4180426;28;20571;-80
2022/09/02 03:51:02;;;;;;;2.47;1.70;;;23.50;95.90;;;;;;4189736;28;20712;-80
2022/09/02 03:53:05;;;;;;;2.50;1.92;;;23.50;95.60;;;;;;4177233;28;20277;-80
2022/09/02 03:55:08;;;;;;;2.28;1.80;;;23.40;95.40;;;;;;4179552;28;20219;-80
2022/09/02 03:57:10;;;;;;;2.70;1.80;;;23.40;95.50;;;;;;4188689;28;20208;-80
2022/09/02 03:59:12;;;;;;;3.78;1.70;;;23.50;95.50;;;;;;4194399;28;20272;-80
2022/09/02 04:01:17;;;;;;;2.88;1.88;;;23.50;95.60;;;;;;4196465;28;20223;-80
2022/09/02 04:03:20;;;;;;;2.65;2.00;;;23.40;95.60;;;;;;4195272;28;20277;-80
2022/09/02 04:05:23;;;;;;;2.58;1.67;;;23.40;95.70;;;;;;4193132;28;20220;-80
2022/09/02 04:07:27;;;;;;;2.42;1.83;;;23.40;95.70;;;;;;4196824;28;20351;-80
2022/09/02 04:09:29;;;;;;;2.67;2.05;;;23.50;95.60;;;;;;4194089;28;20251;-80
2022/09/02 04:11:32;;;;;;;2.75;1.80;;;23.40;95.80;;;;;;4194767;28;20223;-80
2022/09/02 04:13:34;;;;;;;1.88;1.52;;;23.40;95.70;;;;;;4195662;28;20218;-80
2022/09/02 04:15:39;;;;;;;2.47;1.98;;;23.40;95.80;;;;;;4195685;28;20240;-80
2022/09/02 04:17:42;;;;;;;2.28;1.88;;;23.40;95.70;;;;;;4194100;28;20214;-80
2022/09/02 04:19:44;;;;;;;2.72;1.90;;;23.40;95.70;;;;;;4196259;28;20709;-80
2022/09/02 04:21:46;;;;;;;3.67;1.70;;;23.40;95.70;;;;;;4196116;28;20728;-80
2022/09/02 04:23:51;;;;;;;3.47;1.80;;;23.40;95.70;;;;;;4194241;28;20284;-80
2022/09/02 04:25:53;;;;;;;3.05;1.80;;;23.40;95.80;;;;;;4195246;28;20705;-80
2022/09/02 04:27:55;;;;;;;2.13;1.90;;;23.40;95.60;;;;;;4195023;28;20211;-80
2022/09/02 04:29:58;;;;;;;2.03;1.73;;;23.40;95.80;;;;;;4195920;28;20247;-80
2022/09/02 04:32:00;;;;;;;2.45;2.00;;;23.40;95.70;;;;;;4195714;28;20253;-80
2022/09/02 04:34:03;;;;;;;2.28;1.67;;;23.40;95.70;;;;;;4196344;28;20710;-80
2022/09/02 04:36:07;;;;;;;2.35;1.80;;;23.40;95.80;;;;;;4195062;28;20215;-80
2022/09/02 04:38:10;;;;;;;3.35;2.08;;;23.40;95.90;;;;;;4196151;28;20265;-80
2022/09/02 04:40:13;;;;;;;2.13;1.80;;;23.40;95.80;;;;;;4194636;28;20207;-80
2022/09/02 04:42:15;;;;;;;1.73;1.63;;;23.40;95.90;;;;;;4195632;28;20215;-80
2022/09/02 04:44:18;;;;;;;2.88;1.80;;;23.40;95.90;;;;;;4195827;28;20280;-80
2022/09/02 04:46:20;;;;;;;2.20;1.88;;;23.40;95.80;;;;;;4195769;28;20211;-80
2022/09/02 04:48:22;;;;;;;2.50;1.80;;;23.40;95.80;;;;;;4195720;28;20215;-80
2022/09/02 04:50:25;;;;;;;3.40;1.83;;;23.40;96.10;;;;;;4195689;28;20239;-80
2022/09/02 04:52:28;;;;;;;3.75;1.83;;;23.40;95.90;;;;;;4196082;28;20663;-80
2022/09/02 04:54:30;;;;;;;1.75;1.60;;;23.40;95.80;;;;;;4195549;28;20256;-76
2022/09/02 04:56:34;;;;;;;2.45;1.80;;;23.40;96.00;;;;;;4192673;28;20220;-76
2022/09/02 04:58:37;;;;;;;2.35;1.85;;;23.40;95.90;;;;;;4195197;28;20713;-76
2022/09/02 05:00:41;;;;;;;4.30;2.28;;;23.40;96.00;;;;;;4195276;28;21083;-76
2022/09/02 05:02:43;;;;;;;1.88;1.55;;;23.40;96.00;;;;;;4193952;28;20211;-76
2022/09/02 05:04:45;;;;;;;2.60;1.95;;;23.40;96.00;;;;;;4194454;28;20758;-76
2022/09/02 05:06:49;;;;;;;2.60;1.75;;;23.40;96.10;;;;;;4192727;28;20667;-76
2022/09/02 05:08:52;;;;;;;2.90;2.17;;;23.30;96.00;;;;;;4194307;28;20264;-76
2022/09/02 05:10:54;;;;;;;2.13;1.83;;;23.30;95.90;;;;;;4195026;28;20304;-76
2022/09/02 05:12:58;;;;;;;3.05;1.85;;;23.30;96.10;;;;;;4194989;28;20215;-76
2022/09/02 05:15:00;;;;;;;3.25;1.67;;;23.40;96.10;;;;;;4194130;28;20632;-76
2022/09/02 05:17:03;;;;;;;3.20;1.80;;;23.30;96.10;;;;;;4194685;28;20223;-76
2022/09/02 05:19:08;;;;;;;3.30;1.83;;;23.30;96.10;;;;;;4194713;28;20270;-76
2022/09/02 05:21:11;;;;;;;4.38;2.35;;;23.30;96.10;;;;;;4193492;28;20272;-76
2022/09/02 05:23:13;;;;;;;3.13;1.80;;;23.30;96.20;;;;;;4192773;28;20256;-76
2022/09/02 05:25:16;;;;;;;2.35;1.75;;;23.30;96.10;;;;;;4193799;28;20211;-76
2022/09/02 05:27:19;;;;;;;2.67;1.70;;;23.30;96.20;;;;;;4194235;28;20223;-76
2022/09/02 05:29:22;;;;;;;3.03;2.10;;;23.30;96.20;;;;;;4193992;28;20207;-76
2022/09/02 05:31:26;;;;;;;2.30;1.85;;;23.30;96.30;;;;;;4193463;28;20261;-76
2022/09/02 05:33:28;;;;;;;3.50;2.00;;;23.30;96.30;;;;;;4194815;28;20215;-76
2022/09/02 05:35:31;;;;;;;1.70;1.60;;;23.30;96.30;;;;;;4195138;28;20215;-76
2022/09/02 05:37:34;;;;;;;3.80;1.90;;;23.30;96.20;;;;;;4192016;28;20215;-76
2022/09/02 05:39:36;;;;;;;2.13;1.80;;;23.30;96.30;;;;;;4194068;28;20222;-76
2022/09/02 05:41:39;;;;;;;2.85;1.88;;;23.30;96.30;;;;;;4194786;28;20261;-76
2022/09/02 05:43:43;;;;;;;3.28;1.92;;;23.30;96.30;;;;;;4194979;28;20223;-76
2022/09/02 05:45:47;;;;;;;2.95;2.00;;;23.30;96.30;;;;;;4194509;28;20268;-76
2022/09/02 05:47:50;;;;;;;3.25;2.03;;;23.30;96.30;;;;;;4194426;28;20284;-76
2022/09/02 05:49:51;;;;;;;4.25;2.20;;;23.30;96.20;;;;;;4194864;28;20219;-76
2022/09/02 05:51:56;;;;;;;3.53;1.73;;;23.30;96.70;;;;;;4194472;28;20636;-76
2022/09/02 05:54:00;;;;;;;5.60;2.20;;;23.30;96.20;;;;;;4191880;28;20627;-76
2022/09/02 05:56:04;;;;;;;3.22;2.05;;;23.30;96.20;;;;;;4194236;28;20215;-76
2022/09/02 05:58:07;;;;;;;5.40;2.00;;;23.30;96.40;;;;;;4193734;28;20223;-76
2022/09/02 06:00:10;;;;;;;3.13;1.90;;;23.30;96.30;;;;;;4186788;28;20300;-76
2022/09/02 06:02:16;;;;;;;1.75;1.50;;;23.30;96.30;;;;;;4182151;28;20261;-76
2022/09/02 06:04:18;;;;;;;3.28;1.88;;;23.30;96.30;;;;;;4192241;28;20227;-76
2022/09/02 06:06:22;;;;;;;3.95;2.38;;;23.30;96.20;;;;;;4192183;28;20260;-76
2022/09/02 06:08:28;;;;;;;2.65;1.77;;;23.30;96.30;;;;;;4194305;28;20219;-76
2022/09/02 06:10:30;;;;;;;3.78;2.08;;;23.30;96.30;;;;;;4190144;28;20242;-77
2022/09/02 06:12:32;;;;;;;5.47;2.13;;;23.30;96.00;;;;;;4193514;28;20628;-77
2022/09/02 06:14:36;;;;;;;4.13;1.70;;;23.30;96.10;;;;;;4194461;28;20730;-77
2022/09/02 06:16:40;;;;;;;3.15;2.08;;;23.30;96.20;;;;;;4192335;28;20277;-77
2022/09/02 06:18:43;;;;;;;3.38;1.95;;;23.30;96.10;;;;;;4193064;28;20705;-77
2022/09/02 06:20:47;;;;;;;4.85;1.83;;;23.40;96.10;;;;;;4192698;28;20650;-78
2022/09/02 06:22:50;;;;;;;3.22;2.17;;;23.40;96.20;;;;;;4195362;28;20218;-77
2022/09/02 06:24:52;;;;;;;3.40;1.95;;;23.40;96.20;;;;;;4197270;28;20214;-78
2022/09/02 06:26:55;;;;;;;3.63;2.35;;;23.40;96.20;;;;;;4198153;28;20261;-77
2022/09/02 06:28:57;;;;;;;3.40;2.10;;;23.40;96.50;;;;;;4202573;28;20214;-77
2022/09/02 06:31:00;;;;;;;4.07;2.20;;;23.40;96.50;;;;;;4194158;28;20662;-77
2022/09/02 06:33:03;;;;;;;5.28;2.13;;;23.40;96.60;;;;;;4203029;28;20215;-77
2022/09/02 06:35:09;;;;;;;4.45;2.00;;;23.40;96.60;;;;;;4205403;28;20206;-77
2022/09/02 06:37:11;;;;;;;3.33;1.98;;;23.40;96.50;;;;;;4206150;28;20211;-77
2022/09/02 06:39:16;;;;;;;4.35;1.90;;;23.40;96.60;;;;;;4199476;28;20218;-77
2022/09/02 06:41:22;;;;;;;2.15;1.75;;;23.40;96.70;;;;;;4203650;28;20252;-76
2022/09/02 06:43:24;;;;;;;6.50;2.22;;;23.50;96.80;;;;;;4206154;28;20214;-76
2022/09/02 06:45:26;;;;;;;3.92;2.20;;;23.50;96.80;;;;;;4195608;28;20219;-76
2022/09/02 06:47:30;;;;;;;3.30;2.00;;;23.40;96.90;;;;;;4195525;28;20227;-76
2022/09/02 06:49:32;;;;;;;3.42;2.30;;;23.50;97.00;;;;;;4194184;28;20223;-77
2022/09/02 06:51:39;;;;;;;4.63;2.00;;;23.50;96.80;;;;;;4200480;28;20628;-77
2022/09/02 06:53:41;;;;;;;2.50;2.10;;;23.60;96.60;;;;;;4197822;28;20638;-77
2022/09/02 06:55:45;;;;;;;2.75;2.15;;;23.60;96.50;;;;;;4195859;28;20219;-77
2022/09/02 06:57:47;;;;;;;2.70;2.08;;;23.60;96.80;;;;;;4197447;28;20280;-77
2022/09/02 06:59:51;;;;;;;3.13;2.03;;;23.50;97.20;;;;;;4193461;28;20304;-77
2022/09/02 07:01:54;;;;;;;2.85;1.95;;;23.60;97.50;;;;;;4190824;28;20252;-77
2022/09/02 07:06:16;;;;;;;6.30;2.50;;;23.50;97.30;;;;;;4191001;28;20601;-78
2022/09/02 07:08:21;;;;;;;8.57;2.70;;;23.50;96.90;;;;;;4198298;28;20276;-79
2022/09/02 07:10:23;;;;;;;6.20;2.58;;;23.60;97.20;;;;;;4200309;28;20552;-77
2022/09/02 07:12:27;;;;;;;5.32;2.30;;;23.50;97.30;;;;;;4189104;28;20252;-79
2022/09/02 07:14:29;;;;;;;4.47;2.20;;;23.60;97.50;;;;;;4200871;28;20272;-80
2022/09/02 07:16:35;;;;;;;6.50;2.50;;;23.60;97.50;;;;;;4193899;28;20219;-78
2022/09/02 07:18:38;;;;;;;3.63;2.63;;;23.60;97.70;;;;;;4190405;28;20208;-79
2022/09/02 07:20:45;;;;;;;6.82;2.10;;;23.50;97.80;;;;;;4198315;28;20215;-78
2022/09/02 07:22:48;;;;;;;4.53;2.53;;;23.60;97.90;;;;;;4191825;28;20218;-79
2022/09/02 07:24:51;;;;;;;4.00;2.38;;;23.50;98.00;;;;;;4199337;28;20206;-78
2022/09/02 07:26:54;;;;;;;4.63;2.75;;;23.60;98.20;;;;;;4190219;28;20272;-78
2022/09/02 07:28:57;;;;;;;4.60;2.67;;;23.50;98.10;;;;;;4190182;28;20211;-78
2022/09/02 07:30:59;;;;;;;4.97;2.65;;;23.50;98.00;;;;;;4192486;28;20211;-80
2022/09/02 07:33:03;;;;;;;4.32;2.60;;;23.60;97.90;;;;;;4196517;28;20271;-78
2022/09/02 07:35:07;;;;;;;7.38;2.67;;;23.70;98.20;;;;;;4196841;28;20215;-77
2022/09/02 07:37:10;;;;;;;4.90;2.55;;;23.60;98.10;;;;;;4199571;28;20210;-77
2022/09/02 07:39:14;;;;;;;3.30;2.70;;;23.60;98.20;;;;;;4194199;28;20244;-76
2022/09/02 07:41:18;;;;;;;4.40;2.53;;;23.60;98.10;;;;;;4194399;28;20256;-75
2022/09/02 07:43:20;;;;;;;8.32;2.72;;;23.50;97.90;;;;;;4201357;28;20610;-76
2022/09/02 07:45:23;;;;;;;7.05;3.05;;;23.50;98.20;;;;;;4203117;28;20211;-78
2022/09/02 07:47:25;;;;;;;3.78;2.50;;;23.60;98.40;;;;;;4190474;28;20215;-79
2022/09/02 07:49:28;;;;;;;7.68;2.65;;;23.60;98.30;;;;;;4196198;28;20693;-82
2022/09/02 07:51:32;;;;;;;4.03;2.60;;;23.60;98.30;;;;;;4183398;28;20284;-78
2022/09/02 07:53:35;;;;;;;4.47;2.40;;;23.60;98.20;;;;;;4183370;28;20215;-78
2022/09/02 07:56:00;;;;;;;8.70;2.50;;;23.70;98.30;;;;;;4186559;28;20268;-81
2022/09/02 07:58:04;;;;;;;2.83;2.20;;;23.60;98.30;;;;;;4189316;28;20269;-79
2022/09/02 08:00:10;;;;;;;5.68;2.35;;;23.70;98.60;;;;;;4193809;28;20269;-78
2022/09/02 08:02:13;;;;;;;5.50;2.58;;;23.70;98.50;;;;;;4189217;28;20264;-79
2022/09/02 08:04:20;;;;;;;3.45;2.00;;;23.70;98.70;;;;;;4197120;28;20228;-77
2022/09/02 08:06:25;;;;;;;5.07;2.75;;;23.70;98.80;;;;;;4191446;28;20608;-79
2022/09/02 08:08:28;;;;;;;4.65;2.60;;;23.70;98.60;;;;;;4193941;28;20260;-81
2022/09/02 08:10:36;;;;;;;5.32;2.60;;;23.80;98.70;;;;;;4193423;28;20655;-82
2022/09/02 08:12:45;;;;;;;6.93;2.42;;;23.80;99.00;;;;;;4194882;28;20256;-83
2022/09/02 08:17:50;;;;;;;5.22;2.20;;;23.90;98.50;;;;;;4173076;28;20284;-83
2022/09/02 08:19:52;;;;;;;13.18;3.20;;;23.80;98.60;;;;;;4193708;28;20964;-80
2022/09/02 08:21:55;;;;;;;4.35;2.53;;;23.90;98.90;;;;;;4195538;28;20208;-80
2022/09/02 08:23:59;;;;;;;8.38;2.97;;;23.90;99.40;;;;;;4200525;28;20269;-81
2022/09/02 08:26:06;;;;;;;3.22;2.30;;;23.90;99.50;;;;;;4193182;28;20265;-82
2022/09/02 08:28:09;;;;;;;5.78;2.78;;;23.90;99.70;;;;;;4188726;28;20211;-77
2022/09/02 08:30:12;;;;;;;4.85;2.53;;;23.90;99.80;;;;;;4190758;28;20215;-78
2022/09/02 08:32:14;;;;;;;5.32;2.47;;;23.90;99.90;;;;;;4194737;28;20814;-76
2022/09/02 08:34:28;;;;;;;2.78;2.22;;;23.90;99.70;;;;;;4199458;28;20273;-75
2022/09/02 08:36:30;;;;;;;5.15;2.80;;;24.00;99.90;;;;;;4187059;28;20599;-74
2022/09/02 08:38:34;;;;;;;3.72;2.42;;;24.00;99.80;;;;;;4187322;28;20218;-75
2022/09/02 08:40:39;;;;;;;4.25;2.47;;;24.00;99.80;;;;;;4188242;28;20222;-77
2022/09/02 08:42:45;;;;;;;8.65;2.42;;;24.00;99.70;;;;;;4192374;28;20215;-81
2022/09/02 08:44:54;;;;;;;3.92;2.53;;;24.10;99.40;;;;;;4193932;28;20290;-79
2022/09/02 08:47:00;;;;;;;8.90;2.63;;;24.10;99.70;;;;;;4193541;28;20222;-80
2022/09/02 08:49:09;;;;;;;4.13;2.38;;;24.10;99.70;;;;;;4196995;28;20218;-79
2022/09/02 08:51:20;;;;;;;11.05;2.38;;;24.10;99.80;;;;;;4194761;28;20260;-80
2022/09/02 08:53:32;;;;;;;6.53;2.70;;;24.10;99.90;;;;;;4198339;28;20231;-79
2022/09/02 08:55:45;;;;;;;5.35;2.30;;;24.10;99.90;;;;;;4195719;28;20245;-82
2022/09/02 08:57:48;;;;;;;3.35;2.10;;;24.10;99.90;;;;;;4192162;28;20222;-77
2022/09/02 08:59:51;;;;;;;4.70;2.33;;;24.10;99.90;;;;;;4184777;28;20239;-78
2022/09/02 09:02:02;;;;;;;5.10;2.50;;;24.20;99.90;;;;;;4193492;28;20851;-77
2022/09/02 09:04:20;;;;;;;5.25;2.63;;;24.20;99.90;;;;;;4189842;28;20720;-76
2022/09/02 09:06:31;;;;;;;10.55;2.80;;;24.20;99.90;;;;;;4191173;28;20218;-79
2022/09/02 09:08:41;;;;;;;5.82;2.80;;;24.10;99.80;;;;;;4188309;28;20207;-79
2022/09/02 09:10:56;;;;;;;3.45;2.65;;;24.10;99.90;;;;;;4192091;28;20258;-84
2022/09/02 09:13:38;;;;;;;3.35;2.67;;;24.20;99.80;;;;;;4193701;28;20240;-86
2022/09/02 09:15:46;;;;;;;5.13;2.28;;;24.20;99.90;;;;;;4196732;28;20249;-79
2022/09/02 09:17:56;;;;;;;2.90;2.47;;;24.10;99.90;;;;;;4196104;28;20265;-82
2022/09/02 09:20:03;;;;;;;4.25;2.90;;;24.10;99.90;;;;;;4193249;28;20215;-76
2022/09/02 09:22:07;;;;;;;5.65;2.65;;;24.10;99.90;;;;;;4197057;28;20277;-80
2022/09/02 09:24:25;;;;;;;3.30;2.50;;;24.20;99.90;;;;;;4196240;28;20261;-78
2022/09/02 09:26:32;;;;;;;4.25;2.63;;;24.20;99.90;;;;;;4197932;28;20260;-81
2022/09/02 09:28:43;;;;;;;3.13;2.60;;;24.20;99.90;;;;;;4186664;28;20226;-78
2022/09/02 09:30:45;;;;;;;4.80;2.97;;;24.20;99.90;;;;;;4198712;28;20937;-79
2022/09/02 09:32:53;;;;;;;6.50;2.90;;;24.20;99.90;;;;;;4187849;28;21065;-79
2022/09/02 09:35:00;;;;;;;5.97;2.53;;;24.20;99.90;;;;;;4194809;28;20222;-83
2022/09/02 09:37:04;;;;;;;3.40;2.80;;;24.30;99.90;;;;;;4193272;28;20650;-79
2022/09/02 09:39:18;;;;;;;6.88;2.83;;;24.20;99.90;;;;;;4193553;28;20215;-82
2022/09/02 09:41:23;;;;;;;2.97;2.47;;;24.20;99.90;;;;;;4194698;28;20559;-81
2022/09/02 09:43:31;;;;;;;7.80;3.05;;;24.20;99.90;;;;;;4195095;28;20566;-78
2022/09/02 09:45:35;;;;;;;5.07;2.97;;;24.30;99.90;;;;;;4188182;28;20211;-79
2022/09/02 09:47:39;;;;;;;6.38;3.05;;;24.30;99.90;;;;;;4193114;28;20272;-81
2022/09/02 09:49:41;;;;;;;5.13;2.83;;;24.20;99.90;;;;;;4199235;28;20219;-81
2022/09/02 09:51:54;;;;;;;3.58;2.70;;;24.30;99.90;;;;;;4198345;28;20979;-79
2022/09/02 09:54:17;;;;;;;3.40;2.45;;;24.30;99.90;;;;;;4191594;28;20235;-80
2022/09/02 09:56:33;;;;;;;4.22;2.92;;;24.40;99.90;;;;;;4195951;28;20215;-80
2022/09/02 09:58:44;;;;;;;3.97;2.63;;;24.50;99.90;;;;;;4177616;28;20366;-78
2022/09/02 10:00:46;;;;;;;5.40;3.00;;;24.50;99.90;;;;;;4190062;28;20206;-84
2022/09/02 10:02:52;;;;;;;4.28;2.83;;;24.50;99.90;;;;;;4194200;28;20622;-79
2022/09/02 10:05:09;;;;;;;4.10;2.67;;;24.40;99.90;;;;;;4189853;28;20215;-80
2022/09/02 10:07:13;;;;;;;6.88;2.97;;;24.50;99.90;;;;;;4190626;28;20656;-77
2022/09/02 10:09:32;;;;;;;2.63;2.30;;;24.50;99.90;;;;;;4186728;28;20371;-84
2022/09/02 10:11:36;;;;;;;6.40;2.75;;;24.60;99.90;;;;;;4180442;28;20264;-78
2022/09/02 10:13:39;;;;;;;4.65;3.03;;;24.60;99.90;;;;;;4172132;28;21843;-77
2022/09/02 10:15:52;;;;;;;10.38;3.13;;;24.60;99.90;;;;;;4178626;28;20262;-79
2022/09/02 10:18:04;;;;;;;9.27;3.28;;;24.60;99.90;;;;;;4176171;28;20668;-82
2022/09/02 10:20:12;;;;;;;5.00;3.08;;;24.60;99.90;;;;;;4176543;28;20215;-82
2022/09/02 10:22:40;;;;;;;3.03;2.63;;;24.60;99.90;;;;;;4188229;28;20245;-86
2022/09/02 10:25:00;;;;;;;6.63;2.92;;;24.70;99.90;;;;;;4169288;28;20245;-80
2022/09/02 10:27:08;;;;;;;6.22;2.60;;;24.50;99.90;;;;;;4184318;28;20219;-80
2022/09/02 10:29:36;;;;;;;4.97;2.67;;;24.60;99.90;;;;;;4190904;28;20214;-81
2022/09/02 10:31:48;;;;;;;4.47;2.60;;;24.70;99.90;;;;;;4188415;28;20566;-80
2022/09/02 10:34:03;;;;;;;4.65;2.50;;;24.70;99.90;;;;;;4182335;28;20257;-80
2022/09/02 10:36:11;;;;;;;3.88;2.45;;;24.70;99.90;;;;;;4187340;28;20206;-78
2022/09/02 10:38:37;;;;;;;3.58;2.75;;;24.70;99.90;;;;;;4193239;28;20219;-82
2022/09/02 10:40:46;;;;;;;5.35;2.65;;;24.70;99.90;;;;;;4196620;28;20269;-78
2022/09/02 10:43:01;;;;;;;5.50;2.85;;;24.70;99.90;;;;;;4187098;28;20261;-76
2022/09/02 10:45:11;;;;;;;5.15;2.83;;;24.70;99.90;;;;;;4187609;28;20632;-77
2022/09/02 10:47:21;;;;;;;5.13;2.58;;;24.70;99.90;;;;;;4182941;28;20279;-81
2022/09/02 10:49:37;;;;;;;4.55;3.08;;;24.70;99.90;;;;;;4193727;28;20211;-80
2022/09/02 10:51:49;;;;;;;2.65;2.40;;;24.80;99.90;;;;;;4180634;28;20668;-78
2022/09/02 10:54:09;;;;;;;4.60;2.47;;;24.80;99.90;;;;;;4179261;28;20231;-79